Time;durP1;ratioP1;P1;durP2;ratioP2;P2;SDS_P1;SDS_P2;PMS_P1;PMS_P2;Temp;Humidity;BMP_temperature;BMP_pressure;BME280_temperature;BME280_humidity;BME280_pressure;Samples;Min_cycle;Max_cycle;Signal;HPM_P1;HPM_P2
2022/11/03 00:01:05;;;;;;;14.77;5.10;;;;;;;;;;5037368;28;20273;-79
2022/11/03 00:03:31;;;;;;;13.38;5.07;;;;;;;;;;5031220;28;20113;-79
2022/11/03 00:06:04;;;;;;;13.68;5.22;;;;;;;;;;5023694;28;20046;-79
2022/11/03 00:08:32;;;;;;;19.92;5.07;;;;;;;;;;5022663;28;20137;-79
2022/11/03 00:11:06;;;;;;;11.82;4.93;;;;;;;;;;5017308;28;20058;-79
2022/11/03 00:13:33;;;;;;;15.38;5.20;;;;;;;;;;4996553;28;20049;-79
2022/11/03 00:15:59;;;;;;;17.23;5.30;;;;;;;;;;4999296;28;20057;-79
2022/11/03 00:18:26;;;;;;;12.95;5.05;;;;;;;;;;5016626;28;20046;-79
2022/11/03 00:20:56;;;;;;;15.68;5.28;;;;;;;;;;5015303;28;20054;-80
2022/11/03 00:23:23;;;;;;;17.05;5.72;;;;;;;;;;5015587;28;20069;-79
2022/11/03 00:25:50;;;;;;;11.75;4.70;;;;;;;;;;5003048;28;20042;-79
2022/11/03 00:28:16;;;;;;;17.25;5.53;;;;;;;;;;5020248;28;20053;-79
2022/11/03 00:30:42;;;;;;;16.02;5.18;;;;;;;;;;5020720;28;20479;-79
2022/11/03 00:33:09;;;;;;;13.80;4.78;;;;;;;;;;5019207;28;20049;-79
2022/11/03 00:35:35;;;;;;;17.45;5.30;;;;;;;;;;5002625;28;20050;-79
2022/11/03 00:38:01;;;;;;;16.05;5.07;;;;;;;;;;5018479;28;20053;-79
2022/11/03 00:40:28;;;;;;;14.30;5.10;;;;;;;;;;5017731;28;20065;-79
2022/11/03 00:42:54;;;;;;;15.88;5.70;;;;;;;;;;5016268;28;20061;-78
2022/11/03 00:45:20;;;;;;;13.43;5.10;;;;;;;;;;5020102;28;20048;-79
2022/11/03 00:50:32;;;;;;;19.57;5.10;;;;;;;;;;5018542;28;20050;-79
2022/11/03 00:52:59;;;;;;;14.05;4.72;;;;;;;;;;5016549;28;20136;-80
2022/11/03 00:55:25;;;;;;;14.60;5.05;;;;;;;;;;5018566;28;20045;-79
2022/11/03 00:57:52;;;;;;;14.75;6.30;;;;;;;;;;5019118;28;20049;-77
2022/11/03 01:00:18;;;;;;;11.88;4.57;;;;;;;;;;5020490;28;20128;-77
2022/11/03 01:02:44;;;;;;;16.17;4.35;;;;;;;;;;5028880;28;20050;-77
2022/11/03 01:07:56;;;;;;;14.57;4.40;;;;;;;;;;5029768;28;20046;-77
2022/11/03 01:10:27;;;;;;;10.07;4.22;;;;;;;;;;5029576;28;20045;-77
2022/11/03 01:12:54;;;;;;;11.68;4.40;;;;;;;;;;5027801;28;20057;-78
2022/11/03 01:15:20;;;;;;;17.35;4.40;;;;;;;;;;5015855;28;20049;-79
2022/11/03 01:17:46;;;;;;;16.63;4.03;;;;;;;;;;5008346;28;20540;-77
2022/11/03 01:20:13;;;;;;;13.93;3.83;;;;;;;;;;4998290;28;20056;-77
2022/11/03 01:22:39;;;;;;;15.65;3.60;;;;;;;;;;5027631;28;20454;-78
2022/11/03 01:25:06;;;;;;;17.10;3.63;;;;;;;;;;5031518;28;20092;-79
2022/11/03 01:27:33;;;;;;;14.80;3.45;;;;;;;;;;5038440;28;20053;-81
2022/11/03 01:29:59;;;;;;;11.38;3.30;;;;;;;;;;5040494;28;20166;-81
2022/11/03 01:32:26;;;;;;;9.27;3.22;;;;;;;;;;5036947;28;20053;-78
2022/11/03 01:34:53;;;;;;;15.68;2.75;;;;;;;;;;5031593;28;20051;-79
2022/11/03 01:37:19;;;;;;;10.52;2.60;;;;;;;;;;5032449;28;20535;-80
2022/11/03 01:39:46;;;;;;;15.20;2.90;;;;;;;;;;5033680;28;20053;-79
2022/11/03 01:42:13;;;;;;;10.55;3.10;;;;;;;;;;5025460;28;20092;-80
2022/11/03 01:44:46;;;;;;;17.55;2.88;;;;;;;;;;4994214;28;20062;-79
2022/11/03 01:47:12;;;;;;;14.50;2.78;;;;;;;;;;4995323;28;20085;-79
2022/11/03 01:49:38;;;;;;;12.20;2.88;;;;;;;;;;5011516;28;20076;-79
2022/11/03 01:52:08;;;;;;;13.23;2.83;;;;;;;;;;5015233;28;20133;-80
2022/11/03 01:54:36;;;;;;;8.15;2.75;;;;;;;;;;5016959;28;20097;-80
2022/11/03 01:57:04;;;;;;;12.00;2.80;;;;;;;;;;5019927;28;20046;-80
2022/11/03 01:59:31;;;;;;;10.80;2.53;;;;;;;;;;5019319;28;20053;-79
2022/11/03 02:01:57;;;;;;;17.92;2.30;;;;;;;;;;5004397;28;20061;-79
2022/11/03 02:04:29;;;;;;;13.10;2.38;;;;;;;;;;5013400;28;20088;-79
2022/11/03 02:07:03;;;;;;;15.18;2.15;;;;;;;;;;5001449;28;20180;-79
2022/11/03 02:09:30;;;;;;;11.38;2.55;;;;;;;;;;5018108;28;20046;-79
2022/11/03 02:12:06;;;;;;;5.90;2.10;;;;;;;;;;5014599;28;20483;-78
2022/11/03 02:14:44;;;;;;;14.77;2.58;;;;;;;;;;4994680;28;20045;-79
2022/11/03 02:17:12;;;;;;;10.98;2.90;;;;;;;;;;4983310;28;20058;-80
2022/11/03 02:19:47;;;;;;;13.65;2.40;;;;;;;;;;4996184;28;20069;-77
2022/11/03 02:22:14;;;;;;;;;;;;;;;;;;4999457;28;20054;-76
2022/11/03 02:24:47;;;;;;;7.57;2.33;;;;;;;;;;4999635;28;19932;-79
2022/11/03 02:27:19;;;;;;;15.65;2.92;;;;;;;;;;5009904;28;20077;-79
2022/11/03 02:29:46;;;;;;;14.30;2.30;;;;;;;;;;5005035;28;20046;-78
2022/11/03 02:32:22;;;;;;;11.02;2.45;;;;;;;;;;5005669;28;20046;-79
2022/11/03 02:34:54;;;;;;;14.40;2.40;;;;;;;;;;5003281;28;20145;-79
2022/11/03 02:37:29;;;;;;;9.68;2.50;;;;;;;;;;5009174;28;20078;-79
2022/11/03 02:39:57;;;;;;;8.48;2.67;;;;;;;;;;5006802;28;20218;-79
2022/11/03 02:42:24;;;;;;;6.55;2.55;;;;;;;;;;5002728;28;20057;-78
2022/11/03 02:44:52;;;;;;;11.05;2.75;;;;;;;;;;5002670;28;20084;-78
2022/11/03 02:47:20;;;;;;;13.77;3.38;;;;;;;;;;5002510;28;20057;-79
2022/11/03 02:49:47;;;;;;;18.60;3.78;;;;;;;;;;4996421;28;20050;-79
2022/11/03 02:52:34;;;;;;;16.00;3.88;;;;;;;;;;4999431;28;20108;-75
2022/11/03 02:55:05;;;;;;;10.95;3.63;;;;;;;;;;4999166;28;20125;-79
2022/11/03 02:57:35;;;;;;;11.27;3.92;;;;;;;;;;5002016;28;20050;-79
2022/11/03 03:00:05;;;;;;;14.45;3.83;;;;;;;;;;5000511;28;20046;-79
2022/11/03 03:02:34;;;;;;;16.90;3.65;;;;;;;;;;5001327;28;20113;-80
2022/11/03 03:05:02;;;;;;;9.43;3.08;;;;;;;;;;4997250;28;20093;-79
2022/11/03 03:07:37;;;;;;;13.57;4.00;;;;;;;;;;5036751;28;20061;-79
2022/11/03 03:10:06;;;;;;;9.13;3.47;;;;;;;;;;5038905;28;20058;-79
2022/11/03 03:12:34;;;;;;;15.70;3.58;;;;;;;;;;5037337;28;20132;-79
2022/11/03 03:15:02;;;;;;;14.50;3.47;;;;;;;;;;5025560;28;20046;-79
2022/11/03 03:17:28;;;;;;;9.80;3.30;;;;;;;;;;5024754;28;20064;-78
2022/11/03 03:20:00;;;;;;;10.85;3.38;;;;;;;;;;5034937;28;20034;-78
2022/11/03 03:22:29;;;;;;;11.65;3.30;;;;;;;;;;5037457;28;20105;-77
2022/11/03 03:25:05;;;;;;;18.85;3.90;;;;;;;;;;5024085;28;20042;-80
2022/11/03 03:27:33;;;;;;;12.40;3.65;;;;;;;;;;5017563;28;20054;-80
2022/11/03 03:30:02;;;;;;;18.73;3.75;;;;;;;;;;5014488;28;20046;-78
2022/11/03 03:32:30;;;;;;;16.15;3.10;;;;;;;;;;5013855;28;20109;-80
2022/11/03 03:34:57;;;;;;;11.98;3.60;;;;;;;;;;5013177;28;20133;-80
2022/11/03 03:37:24;;;;;;;16.98;3.85;;;;;;;;;;4999268;28;20057;-80
2022/11/03 03:39:52;;;;;;;10.35;3.45;;;;;;;;;;5014607;28;20050;-80
2022/11/03 03:42:19;;;;;;;12.80;3.45;;;;;;;;;;5014795;28;20056;-78
2022/11/03 03:44:46;;;;;;;10.43;3.57;;;;;;;;;;4975869;28;1127840;-78
2022/11/03 03:47:18;;;;;;;10.98;3.17;;;;;;;;;;5018049;28;20060;-79
2022/11/03 03:49:44;;;;;;;8.63;3.28;;;;;;;;;;5014704;28;20052;-79
2022/11/03 03:52:11;;;;;;;10.27;3.50;;;;;;;;;;5017934;28;20050;-79
2022/11/03 03:54:37;;;;;;;13.82;3.92;;;;;;;;;;5017491;28;20052;-79
2022/11/03 03:57:04;;;;;;;10.43;3.63;;;;;;;;;;5001590;28;20079;-79
2022/11/03 03:59:31;;;;;;;10.50;3.20;;;;;;;;;;5019211;28;20069;-79
2022/11/03 04:01:57;;;;;;;12.73;3.65;;;;;;;;;;5000677;28;20058;-78
2022/11/03 04:04:24;;;;;;;11.23;3.33;;;;;;;;;;5012043;28;20216;-78
2022/11/03 04:07:45;;;;;;;9.18;3.20;;;;;;;;;;5015782;28;20050;-80
2022/11/03 04:09:37;;;;;;;8.93;3.30;;;;;;;;;;5026149;28;20049;-79
2022/11/03 04:23:03;;;;;;;11.05;2.90;;;;;;;;;;5041239;28;20049;-80
2022/11/03 04:25:29;;;;;;;15.02;3.45;;;;;;;;;;5041861;28;20136;-80
2022/11/03 04:27:56;;;;;;;8.82;2.90;;;;;;;;;;5042969;28;20045;-80
2022/11/03 04:30:23;;;;;;;9.85;3.00;;;;;;;;;;5041372;28;20057;-78
2022/11/03 04:32:50;;;;;;;11.85;3.22;;;;;;;;;;5014277;28;20080;-78
2022/11/03 04:35:23;;;;;;;9.88;3.03;;;;;;;;;;5011141;28;20045;-80
2022/11/03 04:37:53;;;;;;;10.10;3.22;;;;;;;;;;5012445;28;20200;-80
2022/11/03 04:40:19;;;;;;;12.60;3.60;;;;;;;;;;4997690;28;20049;-81
2022/11/03 04:42:46;;;;;;;13.70;3.70;;;;;;;;;;5014762;28;20059;-80
2022/11/03 04:45:21;;;;;;;12.30;3.45;;;;;;;;;;5015364;28;20060;-80
2022/11/03 04:47:50;;;;;;;12.60;3.13;;;;;;;;;;5000347;28;20042;-80
2022/11/03 04:50:18;;;;;;;11.75;2.70;;;;;;;;;;5011664;28;20060;-80
2022/11/03 04:52:50;;;;;;;12.43;2.88;;;;;;;;;;4997379;28;20050;-77
2022/11/03 04:55:17;;;;;;;8.05;2.75;;;;;;;;;;5014602;28;20049;-77
2022/11/03 04:57:44;;;;;;;11.55;3.00;;;;;;;;;;5012249;28;20536;-78
2022/11/03 05:00:17;;;;;;;12.05;2.92;;;;;;;;;;5018944;28;20064;-78
2022/11/03 05:02:44;;;;;;;11.32;2.78;;;;;;;;;;5019571;28;20058;-78
2022/11/03 05:05:16;;;;;;;9.65;2.90;;;;;;;;;;5013697;28;20568;-77
2022/11/03 05:07:42;;;;;;;12.85;2.90;;;;;;;;;;5016252;28;20060;-78
2022/11/03 05:10:13;;;;;;;9.02;2.50;;;;;;;;;;5020495;28;20126;-78
2022/11/03 05:12:40;;;;;;;12.65;2.55;;;;;;;;;;5020896;28;20514;-78
2022/11/03 05:15:10;;;;;;;9.98;2.53;;;;;;;;;;5002640;28;20074;-80
2022/11/03 05:17:36;;;;;;;8.90;2.67;;;;;;;;;;5023339;28;20534;-80
2022/11/03 05:20:02;;;;;;;11.27;2.47;;;;;;;;;;5017708;28;20046;-79
2022/11/03 05:22:32;;;;;;;10.15;2.47;;;;;;;;;;5022736;28;20108;-78
2022/11/03 05:25:09;;;;;;;17.08;2.53;;;;;;;;;;5025108;28;20058;-79
2022/11/03 05:27:35;;;;;;;8.77;2.47;;;;;;;;;;5005220;28;20053;-78
2022/11/03 05:30:03;;;;;;;10.77;2.35;;;;;;;;;;5028963;28;20046;-78
2022/11/03 05:32:31;;;;;;;3.80;1.65;;;;;;;;;;5042125;28;20081;-79
2022/11/03 05:34:58;;;;;;;9.32;1.90;;;;;;;;;;5037530;28;20063;-80
2022/11/03 05:37:24;;;;;;;7.32;1.67;;;;;;;;;;5018628;28;20053;-80
2022/11/03 05:39:54;;;;;;;11.85;1.60;;;;;;;;;;5034482;28;20458;-80
2022/11/03 05:42:38;;;;;;;7.13;1.30;;;;;;;;;;5034378;28;20464;-80
2022/11/03 05:45:22;;;;;;;7.80;1.08;;;;;;;;;;5033692;28;20049;-79
2022/11/03 05:47:49;;;;;;;10.85;1.40;;;;;;;;;;5038595;28;20060;-81
2022/11/03 05:50:18;;;;;;;6.72;1.63;;;;;;;;;;5031049;28;20064;-79
2022/11/03 05:52:46;;;;;;;10.57;1.30;;;;;;;;;;5022582;28;20046;-80
2022/11/03 05:55:19;;;;;;;6.32;1.60;;;;;;;;;;5014225;28;20054;-80
2022/11/03 05:57:45;;;;;;;5.13;1.60;;;;;;;;;;5014464;28;20121;-79
2022/11/03 06:00:24;;;;;;;4.45;1.25;;;;;;;;;;5013812;28;20054;-80
2022/11/03 06:02:50;;;;;;;4.72;0.95;;;;;;;;;;5013373;28;20161;-79
2022/11/03 06:05:21;;;;;;;4.32;1.08;;;;;;;;;;5008835;28;20100;-79
2022/11/03 06:07:48;;;;;;;4.88;1.20;;;;;;;;;;5015546;28;20068;-80
2022/11/03 06:10:20;;;;;;;7.28;1.10;;;;;;;;;;4995992;28;20046;-80
2022/11/03 06:12:46;;;;;;;14.55;1.70;;;;;;;;;;5015709;28;20288;-80
2022/11/03 06:15:22;;;;;;;7.03;1.83;;;;;;;;;;5016234;28;20046;-79
2022/11/03 06:17:50;;;;;;;12.18;2.90;;;;;;;;;;5016584;28;20064;-79
2022/11/03 06:20:19;;;;;;;10.82;2.80;;;;;;;;;;5012165;28;20050;-80
2022/11/03 06:22:47;;;;;;;9.07;1.75;;;;;;;;;;5015023;28;20117;-80
2022/11/03 06:25:22;;;;;;;4.55;1.40;;;;;;;;;;5015296;28;20058;-79
2022/11/03 06:27:49;;;;;;;6.18;1.30;;;;;;;;;;5015821;28;20048;-80
2022/11/03 06:30:28;;;;;;;13.38;1.60;;;;;;;;;;5014051;28;20042;-80
2022/11/03 06:32:59;;;;;;;4.55;1.17;;;;;;;;;;5013862;28;20430;-80
2022/11/03 06:35:25;;;;;;;7.68;1.42;;;;;;;;;;5013845;28;20060;-80
2022/11/03 06:37:52;;;;;;;15.35;1.55;;;;;;;;;;5018989;28;20153;-79
2022/11/03 06:40:19;;;;;;;10.23;1.77;;;;;;;;;;5022479;28;20054;-79
2022/11/03 06:42:45;;;;;;;9.20;1.98;;;;;;;;;;5036319;28;20219;-80
2022/11/03 06:45:11;;;;;;;12.98;1.92;;;;;;;;;;5036095;28;20109;-79
2022/11/03 06:47:39;;;;;;;8.88;1.83;;;;;;;;;;5026997;28;20061;-80
2022/11/03 06:50:20;;;;;;;11.43;1.83;;;;;;;;;;5018091;28;20077;-80
2022/11/03 06:52:48;;;;;;;6.80;1.58;;;;;;;;;;5018277;28;20045;-80
2022/11/03 06:55:30;;;;;;;13.57;1.83;;;;;;;;;;5018217;28;20057;-80
2022/11/03 06:58:18;;;;;;;8.63;1.83;;;;;;;;;;5017562;28;20057;-80
2022/11/03 07:00:45;;;;;;;9.32;1.67;;;;;;;;;;5017395;28;20049;-79
2022/11/03 07:03:17;;;;;;;6.95;1.95;;;;;;;;;;5016381;28;20056;-79
2022/11/03 07:05:46;;;;;;;8.57;1.98;;;;;;;;;;5015100;28;20053;-79
2022/11/03 07:08:12;;;;;;;16.67;1.73;;;;;;;;;;5018074;28;20520;-80
2022/11/03 07:10:39;;;;;;;11.57;1.80;;;;;;;;;;5018090;28;20042;-78
2022/11/03 07:13:11;;;;;;;8.30;1.75;;;;;;;;;;5000216;28;20075;-79
2022/11/03 07:15:39;;;;;;;7.47;1.45;;;;;;;;;;5018572;28;20144;-79
2022/11/03 07:18:19;;;;;;;13.93;2.20;;;;;;;;;;5002544;28;20095;-80
2022/11/03 07:20:46;;;;;;;12.07;2.17;;;;;;;;;;5017308;28;20099;-79
2022/11/03 07:23:15;;;;;;;7.95;1.90;;;;;;;;;;5001486;28;20054;-80
2022/11/03 07:25:42;;;;;;;5.32;2.17;;;;;;;;;;5019855;28;20132;-80
2022/11/03 07:28:09;;;;;;;8.80;1.70;;;;;;;;;;5029995;28;20505;-79
2022/11/03 07:30:35;;;;;;;10.27;1.60;;;;;;;;;;5034185;28;20110;-78
2022/11/03 07:33:11;;;;;;;16.48;4.85;;;;;;;;;;5022537;28;20050;-79
2022/11/03 07:35:41;;;;;;;10.48;2.50;;;;;;;;;;5014762;28;20050;-79
2022/11/03 07:38:28;;;;;;;9.38;1.35;;;;;;;;;;5018218;28;20081;-80
2022/11/03 07:40:56;;;;;;;13.73;1.80;;;;;;;;;;5017790;28;20050;-80
2022/11/03 07:43:35;;;;;;;7.03;2.63;;;;;;;;;;5016921;28;20049;-79
2022/11/03 07:46:02;;;;;;;11.48;2.97;;;;;;;;;;5018072;28;20141;-79
2022/11/03 07:48:34;;;;;;;10.77;1.90;;;;;;;;;;5017311;28;20140;-78
2022/11/03 07:51:20;;;;;;;10.05;2.30;;;;;;;;;;5018096;28;20073;-80
2022/11/03 07:53:47;;;;;;;7.03;1.77;;;;;;;;;;5019876;28;20336;-79
2022/11/03 07:56:18;;;;;;;10.43;1.73;;;;;;;;;;5020001;28;20088;-79
2022/11/03 07:58:45;;;;;;;10.15;1.70;;;;;;;;;;5011695;28;20687;-79
2022/11/03 08:01:35;;;;;;;9.27;1.58;;;;;;;;;;5012249;28;20052;-79
2022/11/03 08:04:06;;;;;;;8.05;1.23;;;;;;;;;;4982722;28;20046;-79
2022/11/03 08:06:32;;;;;;;13.32;1.70;;;;;;;;;;5012046;28;20068;-79
2022/11/03 08:08:59;;;;;;;5.97;1.35;;;;;;;;;;5014469;28;20057;-80
2022/11/03 08:11:25;;;;;;;10.75;1.80;;;;;;;;;;4995340;28;20058;-79
2022/11/03 08:13:55;;;;;;;9.13;2.10;;;;;;;;;;5012141;28;20432;-80
2022/11/03 08:16:21;;;;;;;13.20;1.95;;;;;;;;;;5014805;28;20129;-79
2022/11/03 08:18:47;;;;;;;6.78;1.25;;;;;;;;;;5011686;28;20058;-79
2022/11/03 08:21:16;;;;;;;7.70;1.60;;;;;;;;;;5014694;28;20053;-79
2022/11/03 08:23:42;;;;;;;10.38;1.77;;;;;;;;;;5015004;28;20092;-79
2022/11/03 08:26:13;;;;;;;6.22;1.30;;;;;;;;;;5014942;28;20580;-80
2022/11/03 08:28:39;;;;;;;4.28;1.10;;;;;;;;;;5014746;28;20515;-80
2022/11/03 08:31:05;;;;;;;11.93;1.73;;;;;;;;;;5016208;28;20056;-80
2022/11/03 08:33:38;;;;;;;8.13;1.50;;;;;;;;;;5013280;28;20042;-77
2022/11/03 08:36:05;;;;;;;11.27;2.00;;;;;;;;;;5016440;28;20517;-80
2022/11/03 08:38:31;;;;;;;8.82;1.55;;;;;;;;;;5014990;28;20057;-80
2022/11/03 08:40:57;;;;;;;8.48;1.90;;;;;;;;;;5018685;28;20140;-80
2022/11/03 08:43:24;;;;;;;8.15;1.58;;;;;;;;;;5000901;28;20417;-79
2022/11/03 08:45:52;;;;;;;7.35;1.85;;;;;;;;;;5016588;28;20046;-80
2022/11/03 08:48:28;;;;;;;10.63;1.80;;;;;;;;;;5018861;28;20136;-80
2022/11/03 08:50:55;;;;;;;6.22;1.40;;;;;;;;;;5017034;28;20054;-79
2022/11/03 08:53:22;;;;;;;4.10;1.50;;;;;;;;;;5000875;28;20048;-80
2022/11/03 08:55:49;;;;;;;5.97;1.60;;;;;;;;;;5018972;28;20053;-80
2022/11/03 08:58:15;;;;;;;6.53;1.88;;;;;;;;;;5020283;28;20061;-80
2022/11/03 09:00:42;;;;;;;10.70;2.28;;;;;;;;;;5019639;28;20081;-80
2022/11/03 09:03:08;;;;;;;8.52;2.00;;;;;;;;;;5019989;28;20045;-80
2022/11/03 09:05:35;;;;;;;11.65;2.20;;;;;;;;;;4999404;28;20073;-80
2022/11/03 09:08:01;;;;;;;12.68;3.13;;;;;;;;;;5002384;28;20208;-80
2022/11/03 09:10:48;;;;;;;10.77;3.30;;;;;;;;;;5020310;28;20649;-80
2022/11/03 09:13:14;;;;;;;6.85;2.03;;;;;;;;;;5018420;28;20050;-80
2022/11/03 09:15:41;;;;;;;4.35;1.40;;;;;;;;;;5020153;28;20046;-79
2022/11/03 09:18:07;;;;;;;5.75;1.50;;;;;;;;;;5020825;28;20072;-80
2022/11/03 09:20:34;;;;;;;4.15;1.50;;;;;;;;;;5016624;28;20062;-80
2022/11/03 09:23:00;;;;;;;5.18;2.03;;;;;;;;;;5018215;28;20064;-79
2022/11/03 09:25:26;;;;;;;7.38;2.33;;;;;;;;;;5020922;28;20046;-79
2022/11/03 09:27:53;;;;;;;5.47;2.40;;;;;;;;;;5020397;28;20081;-80
2022/11/03 09:30:19;;;;;;;5.90;2.05;;;;;;;;;;5020969;28;20042;-80
2022/11/03 09:32:46;;;;;;;5.10;1.80;;;;;;;;;;5018785;28;20539;-79
2022/11/03 09:35:13;;;;;;;7.55;2.20;;;;;;;;;;5017850;28;20049;-79
2022/11/03 09:37:39;;;;;;;5.13;1.77;;;;;;;;;;5020373;28;20073;-80
2022/11/03 09:40:08;;;;;;;7.60;2.58;;;;;;;;;;5020276;28;20081;-79
2022/11/03 09:42:35;;;;;;;8.73;2.53;;;;;;;;;;5019081;28;20061;-80
2022/11/03 09:45:01;;;;;;;5.15;1.90;;;;;;;;;;5020362;28;20056;-79
2022/11/03 09:47:31;;;;;;;8.65;2.47;;;;;;;;;;5021455;28;20073;-80
2022/11/03 09:49:58;;;;;;;6.00;1.70;;;;;;;;;;5000114;28;20042;-80
2022/11/03 09:52:24;;;;;;;4.00;1.65;;;;;;;;;;5020965;28;20133;-78
2022/11/03 09:54:52;;;;;;;3.53;1.35;;;;;;;;;;5020603;28;20045;-79
2022/11/03 09:57:18;;;;;;;6.65;1.85;;;;;;;;;;5020847;28;20046;-81
2022/11/03 09:59:46;;;;;;;7.28;1.60;;;;;;;;;;5020743;28;20117;-80
2022/11/03 10:02:33;;;;;;;5.90;1.60;;;;;;;;;;5021002;28;20068;-81
2022/11/03 10:05:00;;;;;;;5.50;1.60;;;;;;;;;;5018547;28;20049;-80
2022/11/03 10:07:33;;;;;;;4.53;1.90;;;;;;;;;;5034115;28;20033;-80
2022/11/03 10:10:00;;;;;;;4.78;1.35;;;;;;;;;;5035243;28;20118;-80
2022/11/03 10:12:30;;;;;;;9.02;1.70;;;;;;;;;;5031491;28;20126;-77
2022/11/03 10:14:56;;;;;;;5.53;1.50;;;;;;;;;;5026408;28;20046;-79
2022/11/03 10:17:25;;;;;;;7.10;1.60;;;;;;;;;;5006332;28;20050;-80
2022/11/03 10:19:54;;;;;;;5.03;1.88;;;;;;;;;;5018337;28;20050;-80
2022/11/03 10:22:21;;;;;;;6.63;1.77;;;;;;;;;;5021797;28;20113;-80
2022/11/03 10:24:48;;;;;;;7.28;2.13;;;;;;;;;;5021956;28;20049;-80
2022/11/03 10:27:21;;;;;;;7.10;2.17;;;;;;;;;;5023580;28;20072;-80
2022/11/03 10:30:06;;;;;;;4.40;1.70;;;;;;;;;;5020773;28;20078;-79
2022/11/03 10:32:33;;;;;;;6.00;1.92;;;;;;;;;;5003591;28;20065;-79
2022/11/03 10:35:00;;;;;;;5.75;2.05;;;;;;;;;;5022612;28;20056;-80
2022/11/03 10:37:27;;;;;;;8.27;2.17;;;;;;;;;;5025150;28;20092;-80
2022/11/03 10:39:54;;;;;;;5.82;2.20;;;;;;;;;;5023993;28;20133;-79
2022/11/03 10:42:22;;;;;;;4.78;2.03;;;;;;;;;;5009617;28;20113;-78
2022/11/03 10:44:50;;;;;;;7.97;1.90;;;;;;;;;;5026709;28;20053;-79
2022/11/03 10:47:24;;;;;;;5.65;1.80;;;;;;;;;;5012253;28;20054;-79
2022/11/03 10:49:53;;;;;;;6.00;1.77;;;;;;;;;;5027788;28;20066;-79
2022/11/03 10:52:24;;;;;;;6.85;2.60;;;;;;;;;;5030248;28;20073;-79
2022/11/03 10:54:52;;;;;;;6.60;1.67;;;;;;;;;;5033026;28;20123;-78
2022/11/03 10:57:19;;;;;;;7.15;1.98;;;;;;;;;;5031431;28;20113;-79
2022/11/03 10:59:47;;;;;;;6.03;2.10;;;;;;;;;;5029780;28;20196;-78
2022/11/03 11:02:18;;;;;;;3.80;1.63;;;;;;;;;;5031543;28;20084;-76
2022/11/03 11:04:58;;;;;;;6.78;1.63;;;;;;;;;;5024056;28;20057;-79
2022/11/03 11:07:28;;;;;;;10.23;2.33;;;;;;;;;;5024824;28;20137;-79
2022/11/03 11:09:54;;;;;;;5.03;1.73;;;;;;;;;;5024291;28;20050;-79
2022/11/03 11:12:22;;;;;;;4.45;1.20;;;;;;;;;;5006706;28;20050;-79
2022/11/03 11:14:52;;;;;;;7.15;1.33;;;;;;;;;;5023084;28;20045;-79
2022/11/03 11:17:38;;;;;;;6.25;1.40;;;;;;;;;;5023719;28;20429;-79
2022/11/03 11:20:05;;;;;;;;;;;;;;;;;;5016787;28;20097;-78
2022/11/03 11:22:31;;;;;;;7.80;1.48;;;;;;;;;;5018634;28;20016;-79
2022/11/03 11:24:58;;;;;;;7.40;1.50;;;;;;;;;;5021783;28;20049;-78
2022/11/03 11:27:30;;;;;;;7.95;1.63;;;;;;;;;;5022532;28;20152;-78
2022/11/03 11:29:57;;;;;;;5.57;1.40;;;;;;;;;;5020653;28;20049;-79
2022/11/03 11:32:47;;;;;;;6.45;1.58;;;;;;;;;;5016664;28;20052;-78
2022/11/03 11:35:17;;;;;;;4.60;1.25;;;;;;;;;;5011766;28;20056;-79
2022/11/03 11:37:43;;;;;;;8.32;1.52;;;;;;;;;;5007039;28;20066;-78
2022/11/03 11:40:10;;;;;;;5.57;1.25;;;;;;;;;;5023806;28;20057;-79
2022/11/03 11:42:57;;;;;;;4.15;1.10;;;;;;;;;;5023727;28;20054;-79
2022/11/03 11:45:42;;;;;;;5.15;1.65;;;;;;;;;;5022127;28;20092;-79
2022/11/03 11:48:16;;;;;;;4.50;1.30;;;;;;;;;;5022386;28;20113;-79
2022/11/03 11:50:44;;;;;;;4.88;1.60;;;;;;;;;;5027358;28;20030;-81
2022/11/03 11:53:19;;;;;;;6.30;1.73;;;;;;;;;;5031461;28;20101;-80
2022/11/03 11:55:58;;;;;;;6.75;1.50;;;;;;;;;;5033303;28;20056;-80
2022/11/03 11:58:28;;;;;;;4.00;1.50;;;;;;;;;;5031843;28;20141;-80
2022/11/03 12:00:56;;;;;;;4.00;1.58;;;;;;;;;;5024068;28;20081;-80
2022/11/03 12:03:28;;;;;;;4.47;1.50;;;;;;;;;;5021000;28;20054;-79
2022/11/03 12:05:54;;;;;;;3.17;1.38;;;;;;;;;;5020944;28;20046;-80
2022/11/03 12:08:27;;;;;;;4.35;1.80;;;;;;;;;;5005955;28;20109;-79
2022/11/03 12:10:55;;;;;;;4.40;1.50;;;;;;;;;;5022251;28;20056;-80
2022/11/03 12:13:41;;;;;;;5.25;1.45;;;;;;;;;;5022956;28;20046;-79
2022/11/03 12:16:08;;;;;;;8.15;1.73;;;;;;;;;;5004839;28;20051;-80
2022/11/03 12:18:35;;;;;;;3.65;1.20;;;;;;;;;;5002077;28;20129;-77
2022/11/03 12:21:13;;;;;;;6.57;1.98;;;;;;;;;;5003523;28;20061;-80
2022/11/03 12:23:44;;;;;;;5.35;1.45;;;;;;;;;;5003077;28;20058;-80
2022/11/03 12:26:33;;;;;;;3.78;1.30;;;;;;;;;;5004828;28;20137;-80
2022/11/03 12:29:00;;;;;;;2.75;1.10;;;;;;;;;;4985558;28;20149;-80
2022/11/03 12:31:26;;;;;;;5.68;1.40;;;;;;;;;;5003201;28;20042;-80
2022/11/03 12:33:58;;;;;;;7.15;1.52;;;;;;;;;;4997084;28;20458;-80
2022/11/03 12:36:24;;;;;;;3.00;1.30;;;;;;;;;;5001242;28;20057;-80
2022/11/03 12:38:52;;;;;;;4.07;1.50;;;;;;;;;;5000600;28;20097;-79
2022/11/03 12:41:21;;;;;;;5.18;1.35;;;;;;;;;;4999610;28;20042;-78
2022/11/03 12:43:56;;;;;;;6.20;1.50;;;;;;;;;;4999749;28;20342;-80
2022/11/03 12:46:23;;;;;;;5.60;1.40;;;;;;;;;;4998065;28;20324;-79
2022/11/03 12:48:50;;;;;;;5.38;1.40;;;;;;;;;;4998795;28;20363;-80
2022/11/03 12:51:17;;;;;;;4.35;1.33;;;;;;;;;;5000041;28;20081;-80
2022/11/03 12:53:43;;;;;;;5.63;1.42;;;;;;;;;;5000339;28;20134;-80
2022/11/03 12:56:10;;;;;;;4.70;1.42;;;;;;;;;;5000516;28;20060;-80
2022/11/03 12:58:37;;;;;;;3.38;1.27;;;;;;;;;;5000456;28;20046;-79
2022/11/03 13:01:04;;;;;;;8.13;2.10;;;;;;;;;;5001786;28;20058;-80
2022/11/03 13:03:31;;;;;;;5.55;1.70;;;;;;;;;;4999906;28;20077;-79
2022/11/03 13:05:58;;;;;;;3.33;1.38;;;;;;;;;;5000753;28;20061;-79
2022/11/03 13:08:24;;;;;;;4.28;1.65;;;;;;;;;;5000042;28;20211;-78
2022/11/03 13:10:51;;;;;;;8.18;1.88;;;;;;;;;;4982365;28;20052;-79
2022/11/03 13:13:18;;;;;;;6.68;1.55;;;;;;;;;;4997243;28;20137;-80
2022/11/03 13:15:51;;;;;;;6.18;1.70;;;;;;;;;;5015854;28;20116;-79
2022/11/03 13:18:21;;;;;;;6.68;1.63;;;;;;;;;;5017533;28;20050;-77
2022/11/03 13:20:47;;;;;;;5.07;1.73;;;;;;;;;;5011948;28;20076;-80
2022/11/03 13:23:14;;;;;;;5.30;1.60;;;;;;;;;;5014579;28;20056;-79
2022/11/03 13:25:45;;;;;;;7.10;1.40;;;;;;;;;;4999440;28;20112;-79
2022/11/03 13:28:12;;;;;;;6.68;1.40;;;;;;;;;;5027395;28;20045;-77
2022/11/03 13:30:40;;;;;;;4.45;1.50;;;;;;;;;;5016471;28;20083;-80
2022/11/03 13:33:06;;;;;;;7.00;2.10;;;;;;;;;;5027323;28;20065;-79
2022/11/03 13:35:34;;;;;;;5.47;1.83;;;;;;;;;;5016185;28;20117;-79
2022/11/03 13:38:03;;;;;;;6.75;1.80;;;;;;;;;;5019776;28;20136;-79
2022/11/03 13:40:32;;;;;;;6.82;1.63;;;;;;;;;;5016618;28;20446;-79
2022/11/03 13:43:18;;;;;;;5.05;1.63;;;;;;;;;;5016750;28;20054;-80
2022/11/03 13:45:44;;;;;;;9.27;1.63;;;;;;;;;;5017218;28;20474;-79
2022/11/03 13:48:12;;;;;;;10.02;1.90;;;;;;;;;;5019779;28;20050;-77
2022/11/03 13:50:58;;;;;;;4.55;1.70;;;;;;;;;;5019432;28;20118;-80
2022/11/03 13:53:25;;;;;;;8.63;2.20;;;;;;;;;;5022375;28;20048;-79
2022/11/03 13:56:12;;;;;;;4.38;2.00;;;;;;;;;;5023002;28;20057;-80
2022/11/03 13:58:47;;;;;;;8.13;2.17;;;;;;;;;;5002120;28;20057;-79
2022/11/03 14:01:33;;;;;;;10.38;2.08;;;;;;;;;;5004739;28;20057;-80
2022/11/03 14:04:01;;;;;;;7.18;2.30;;;;;;;;;;4999880;28;20058;-79
2022/11/03 14:06:47;;;;;;;6.90;2.38;;;;;;;;;;5003267;28;20054;-80
2022/11/03 14:09:14;;;;;;;7.13;2.22;;;;;;;;;;5003617;28;20064;-80
2022/11/03 14:14:45;;;;;;;5.70;2.15;;;;;;;;;;4908103;29;20401;-79
2022/11/03 14:17:11;;;;;;;10.93;2.40;;;;;;;;;;4924406;29;20060;-79
2022/11/03 14:19:38;;;;;;;5.15;2.17;;;;;;;;;;4964258;28;20054;-80
2022/11/03 14:22:11;;;;;;;8.18;2.30;;;;;;;;;;5018252;28;20486;-80
2022/11/03 14:24:37;;;;;;;8.18;2.30;;;;;;;;;;5012642;28;20058;-78
2022/11/03 14:27:04;;;;;;;7.57;2.45;;;;;;;;;;5028759;28;20049;-79
2022/11/03 14:29:30;;;;;;;10.48;2.67;;;;;;;;;;5015882;28;20050;-80
2022/11/03 14:31:56;;;;;;;11.40;2.72;;;;;;;;;;5016129;28;20410;-78
2022/11/03 14:34:23;;;;;;;8.35;2.90;;;;;;;;;;5015495;28;20125;-78
2022/11/03 14:36:49;;;;;;;14.95;3.17;;;;;;;;;;5017615;28;20133;-80
2022/11/03 14:39:16;;;;;;;9.80;2.80;;;;;;;;;;5015606;28;20045;-80
2022/11/03 14:44:38;;;;;;;12.07;3.00;;;;;;;;;;5015530;28;20512;-79
2022/11/03 14:47:06;;;;;;;13.73;3.28;;;;;;;;;;5019526;28;20110;-79
2022/11/03 14:49:33;;;;;;;9.32;3.30;;;;;;;;;;5020795;28;20042;-80
2022/11/03 14:52:03;;;;;;;9.27;2.90;;;;;;;;;;5023933;28;20052;-79
2022/11/03 14:54:30;;;;;;;15.98;3.20;;;;;;;;;;5022836;28;20105;-79
2022/11/03 14:56:56;;;;;;;10.23;3.38;;;;;;;;;;5017266;28;20052;-79
2022/11/03 14:59:23;;;;;;;12.55;3.72;;;;;;;;;;5018726;28;20069;-79
2022/11/03 15:01:50;;;;;;;11.90;2.90;;;;;;;;;;5019870;28;20081;-78
2022/11/03 15:04:17;;;;;;;8.30;2.95;;;;;;;;;;5015982;28;20296;-78
2022/11/03 15:06:44;;;;;;;10.45;3.30;;;;;;;;;;5025416;28;20062;-78
2022/11/03 15:09:13;;;;;;;14.63;3.70;;;;;;;;;;5019361;28;20041;-79
2022/11/03 15:11:42;;;;;;;11.88;3.70;;;;;;;;;;4999907;28;20046;-78
2022/11/03 15:14:09;;;;;;;8.15;3.42;;;;;;;;;;5002046;28;20057;-79